sensor_id;sensor_type;location;lat;lon;timestamp;P1;durP1;ratioP1;P2;durP2;ratioP2
46745;SDS011;32493;50.514;9.678;2024-02-21T00:01:40;21.25;;;4.90;;
46745;SDS011;32493;50.514;9.678;2024-02-21T00:04:09;19.85;;;5.05;;
46745;SDS011;32493;50.514;9.678;2024-02-21T00:06:37;18.08;;;4.53;;
46745;SDS011;32493;50.514;9.678;2024-02-21T00:11:33;18.42;;;4.50;;
46745;SDS011;32493;50.514;9.678;2024-02-21T00:14:00;22.75;;;4.90;;
46745;SDS011;32493;50.514;9.678;2024-02-21T00:16:28;15.88;;;4.55;;
46745;SDS011;32493;50.514;9.678;2024-02-21T00:18:55;14.63;;;4.38;;
46745;SDS011;32493;50.514;9.678;2024-02-21T00:21:24;16.13;;;4.60;;
46745;SDS011;32493;50.514;9.678;2024-02-21T00:23:51;21.02;;;4.78;;
46745;SDS011;32493;50.514;9.678;2024-02-21T00:26:18;13.68;;;4.10;;
46745;SDS011;32493;50.514;9.678;2024-02-21T00:28:47;16.58;;;4.68;;
46745;SDS011;32493;50.514;9.678;2024-02-21T00:31:16;13.30;;;4.22;;
46745;SDS011;32493;50.514;9.678;2024-02-21T00:33:46;20.23;;;5.53;;
46745;SDS011;32493;50.514;9.678;2024-02-21T00:36:14;17.30;;;4.38;;
46745;SDS011;32493;50.514;9.678;2024-02-21T00:38:41;19.33;;;4.43;;
46745;SDS011;32493;50.514;9.678;2024-02-21T00:41:09;19.00;;;4.18;;
46745;SDS011;32493;50.514;9.678;2024-02-21T00:43:36;17.13;;;4.68;;
46745;SDS011;32493;50.514;9.678;2024-02-21T00:46:05;15.52;;;4.22;;
46745;SDS011;32493;50.514;9.678;2024-02-21T00:48:33;18.73;;;4.47;;
46745;SDS011;32493;50.514;9.678;2024-02-21T00:51:02;15.77;;;4.47;;
46745;SDS011;32493;50.514;9.678;2024-02-21T00:53:29;15.52;;;4.55;;
46745;SDS011;32493;50.514;9.678;2024-02-21T00:55:56;16.40;;;4.55;;
46745;SDS011;32493;50.514;9.678;2024-02-21T00:58:24;13.85;;;4.47;;
46745;SDS011;32493;50.514;9.678;2024-02-21T01:00:54;17.23;;;5.05;;
46745;SDS011;32493;50.514;9.678;2024-02-21T01:03:26;17.77;;;4.97;;
46745;SDS011;32493;50.514;9.678;2024-02-21T01:05:57;14.00;;;4.32;;
46745;SDS011;32493;50.514;9.678;2024-02-21T01:08:24;23.05;;;4.50;;
46745;SDS011;32493;50.514;9.678;2024-02-21T01:10:51;18.67;;;4.82;;
46745;SDS011;32493;50.514;9.678;2024-02-21T01:13:22;12.55;;;4.53;;
46745;SDS011;32493;50.514;9.678;2024-02-21T01:15:51;19.17;;;4.50;;
46745;SDS011;32493;50.514;9.678;2024-02-21T01:18:18;15.93;;;4.28;;
46745;SDS011;32493;50.514;9.678;2024-02-21T01:20:48;17.80;;;4.03;;
46745;SDS011;32493;50.514;9.678;2024-02-21T01:23:17;14.65;;;4.15;;
46745;SDS011;32493;50.514;9.678;2024-02-21T01:25:45;15.27;;;4.05;;
46745;SDS011;32493;50.514;9.678;2024-02-21T01:28:12;12.00;;;3.95;;
46745;SDS011;32493;50.514;9.678;2024-02-21T01:30:39;18.58;;;4.85;;
46745;SDS011;32493;50.514;9.678;2024-02-21T01:33:10;17.17;;;4.57;;
46745;SDS011;32493;50.514;9.678;2024-02-21T01:35:37;18.48;;;4.88;;
46745;SDS011;32493;50.514;9.678;2024-02-21T01:38:08;15.27;;;5.15;;
46745;SDS011;32493;50.514;9.678;2024-02-21T01:40:36;19.33;;;4.28;;
46745;SDS011;32493;50.514;9.678;2024-02-21T01:43:14;16.42;;;4.75;;
46745;SDS011;32493;50.514;9.678;2024-02-21T01:45:43;13.00;;;4.45;;
46745;SDS011;32493;50.514;9.678;2024-02-21T01:48:11;18.85;;;4.75;;
46745;SDS011;32493;50.514;9.678;2024-02-21T01:50:43;14.90;;;5.15;;
46745;SDS011;32493;50.514;9.678;2024-02-21T01:53:27;17.00;;;4.97;;
46745;SDS011;32493;50.514;9.678;2024-02-21T01:56:02;14.63;;;3.75;;
46745;SDS011;32493;50.514;9.678;2024-02-21T01:58:32;9.60;;;4.28;;
46745;SDS011;32493;50.514;9.678;2024-02-21T02:01:03;13.85;;;4.07;;
46745;SDS011;32493;50.514;9.678;2024-02-21T02:03:30;15.48;;;4.68;;
46745;SDS011;32493;50.514;9.678;2024-02-21T02:06:01;18.00;;;4.75;;
46745;SDS011;32493;50.514;9.678;2024-02-21T02:08:29;17.77;;;4.13;;
46745;SDS011;32493;50.514;9.678;2024-02-21T02:15:50;15.15;;;4.40;;
46745;SDS011;32493;50.514;9.678;2024-02-21T02:20:49;15.25;;;4.53;;
46745;SDS011;32493;50.514;9.678;2024-02-21T02:23:26;18.80;;;4.97;;
46745;SDS011;32493;50.514;9.678;2024-02-21T02:25:57;18.75;;;5.18;;
46745;SDS011;32493;50.514;9.678;2024-02-21T02:28:25;17.17;;;5.75;;
46745;SDS011;32493;50.514;9.678;2024-02-21T02:30:52;19.38;;;5.25;;
46745;SDS011;32493;50.514;9.678;2024-02-21T02:33:19;18.25;;;4.93;;
46745;SDS011;32493;50.514;9.678;2024-02-21T02:35:50;11.90;;;4.43;;
46745;SDS011;32493;50.514;9.678;2024-02-21T02:38:19;15.27;;;5.10;;
46745;SDS011;32493;50.514;9.678;2024-02-21T02:40:47;18.95;;;5.40;;
46745;SDS011;32493;50.514;9.678;2024-02-21T02:43:16;18.08;;;5.30;;
46745;SDS011;32493;50.514;9.678;2024-02-21T02:45:43;15.82;;;4.40;;
46745;SDS011;32493;50.514;9.678;2024-02-21T02:50:38;20.13;;;5.32;;
46745;SDS011;32493;50.514;9.678;2024-02-21T02:53:07;23.45;;;5.63;;
46745;SDS011;32493;50.514;9.678;2024-02-21T02:55:36;17.85;;;5.22;;
46745;SDS011;32493;50.514;9.678;2024-02-21T02:58:05;17.50;;;5.70;;
46745;SDS011;32493;50.514;9.678;2024-02-21T03:00:33;16.00;;;5.68;;
46745;SDS011;32493;50.514;9.678;2024-02-21T03:03:03;19.80;;;6.10;;
46745;SDS011;32493;50.514;9.678;2024-02-21T03:08:00;21.88;;;6.72;;
46745;SDS011;32493;50.514;9.678;2024-02-21T03:10:28;21.67;;;6.28;;
46745;SDS011;32493;50.514;9.678;2024-02-21T03:12:56;29.67;;;7.70;;
46745;SDS011;32493;50.514;9.678;2024-02-21T03:15:24;21.17;;;7.40;;
46745;SDS011;32493;50.514;9.678;2024-02-21T03:17:52;20.35;;;7.20;;
46745;SDS011;32493;50.514;9.678;2024-02-21T03:20:19;24.40;;;8.50;;
46745;SDS011;32493;50.514;9.678;2024-02-21T03:22:47;14.82;;;6.90;;
46745;SDS011;32493;50.514;9.678;2024-02-21T03:25:14;21.08;;;7.40;;
46745;SDS011;32493;50.514;9.678;2024-02-21T03:27:46;18.58;;;6.72;;
46745;SDS011;32493;50.514;9.678;2024-02-21T03:30:14;26.17;;;7.80;;
46745;SDS011;32493;50.514;9.678;2024-02-21T03:32:44;23.00;;;7.72;;
46745;SDS011;32493;50.514;9.678;2024-02-21T03:35:11;21.27;;;8.07;;
46745;SDS011;32493;50.514;9.678;2024-02-21T03:37:39;21.08;;;7.07;;
46745;SDS011;32493;50.514;9.678;2024-02-21T03:40:14;23.77;;;8.07;;
46745;SDS011;32493;50.514;9.678;2024-02-21T03:42:42;26.30;;;7.88;;
46745;SDS011;32493;50.514;9.678;2024-02-21T03:45:09;31.05;;;9.07;;
46745;SDS011;32493;50.514;9.678;2024-02-21T03:47:37;24.75;;;9.05;;
46745;SDS011;32493;50.514;9.678;2024-02-21T03:50:06;20.55;;;6.97;;
46745;SDS011;32493;50.514;9.678;2024-02-21T03:52:33;21.58;;;7.70;;
46745;SDS011;32493;50.514;9.678;2024-02-21T03:55:06;24.85;;;7.10;;
46745;SDS011;32493;50.514;9.678;2024-02-21T03:57:35;19.42;;;7.47;;
46745;SDS011;32493;50.514;9.678;2024-02-21T04:00:02;21.90;;;8.75;;
46745;SDS011;32493;50.514;9.678;2024-02-21T04:02:32;21.80;;;8.20;;
46745;SDS011;32493;50.514;9.678;2024-02-21T04:04:59;24.80;;;8.70;;
46745;SDS011;32493;50.514;9.678;2024-02-21T04:07:27;19.52;;;7.88;;
46745;SDS011;32493;50.514;9.678;2024-02-21T04:09:54;19.45;;;8.27;;
46745;SDS011;32493;50.514;9.678;2024-02-21T04:12:21;20.90;;;8.40;;
46745;SDS011;32493;50.514;9.678;2024-02-21T04:14:49;21.08;;;8.68;;
46745;SDS011;32493;50.514;9.678;2024-02-21T04:17:19;20.08;;;7.70;;
46745;SDS011;32493;50.514;9.678;2024-02-21T04:19:48;18.27;;;7.72;;
46745;SDS011;32493;50.514;9.678;2024-02-21T04:22:16;27.98;;;8.30;;
46745;SDS011;32493;50.514;9.678;2024-02-21T04:24:43;20.75;;;8.82;;
46745;SDS011;32493;50.514;9.678;2024-02-21T04:27:10;24.25;;;9.07;;
46745;SDS011;32493;50.514;9.678;2024-02-21T04:29:37;23.38;;;8.80;;
46745;SDS011;32493;50.514;9.678;2024-02-21T04:32:05;23.23;;;8.70;;
46745;SDS011;32493;50.514;9.678;2024-02-21T04:34:34;18.30;;;8.52;;
46745;SDS011;32493;50.514;9.678;2024-02-21T04:37:01;21.48;;;8.73;;
46745;SDS011;32493;50.514;9.678;2024-02-21T04:39:32;21.00;;;8.68;;
46745;SDS011;32493;50.514;9.678;2024-02-21T04:41:59;22.10;;;8.88;;
46745;SDS011;32493;50.514;9.678;2024-02-21T04:44:30;22.08;;;8.05;;
46745;SDS011;32493;50.514;9.678;2024-02-21T04:47:05;18.92;;;7.30;;
46745;SDS011;32493;50.514;9.678;2024-02-21T04:49:36;20.85;;;8.73;;
46745;SDS011;32493;50.514;9.678;2024-02-21T04:52:05;18.65;;;7.30;;
46745;SDS011;32493;50.514;9.678;2024-02-21T04:54:32;20.60;;;8.20;;
46745;SDS011;32493;50.514;9.678;2024-02-21T04:57:02;19.25;;;6.93;;
46745;SDS011;32493;50.514;9.678;2024-02-21T04:59:30;19.52;;;8.07;;
46745;SDS011;32493;50.514;9.678;2024-02-21T05:01:57;20.90;;;7.95;;
46745;SDS011;32493;50.514;9.678;2024-02-21T05:04:26;21.85;;;6.88;;
